Sugar Bowl, California Weather observations

Data are for observation ending at time listed.
 Day   Time    Ave.   Ave.  Ave.  Vector   Max.   Stn.    Total    Solar   Ave.   Snow 
  of    of     Air    Rel.  Wind   Wind    Wind   Baro.  Precip.   Rad.    Soil   Depth
Year   Day     Temp.  Hum.  Speed  Dir.    Gust   Pres.                    Temp.       
2014   (PST)    F      %     mph   deg.    mph     mb.     in.     W/m2     F      in. 
---------------------------------------------------------------------------------------  
 355   12:10   41.2    92    4.5   233     11.5   792.9    0.00     196    999.0   26.6
 355   12:20   41.2    92    3.8   239     15.7   792.9    0.00     167    999.0   26.9
 355   12:30   41.1    93    3.5   241     10.4   792.9    0.00     169    999.0   26.7
 355   12:40   41.0    93    4.4   243     11.6   792.8    0.00     144    999.0   27.1
 355   12:50   41.0    93    3.7   235     19.3   792.8    0.00     142    999.0   27.1
 355   13:00   41.0    93    4.1   227     14.8   792.8    0.00     162    999.0   26.8
 355   13:10   41.1    92    4.0   234     17.8   792.9    0.00     174    999.0   26.3
 355   13:20   41.2    92    3.6   241     11.2   792.8    0.00     152    999.0   26.0
 355   13:30   41.0    92    3.3   233      9.6   792.8    0.00     149    999.0   25.1
 355   13:40   41.1    92    3.8   245     21.9   792.8    0.00     135    999.0   25.7
 355   13:50   41.1    92    3.1   235      8.5   792.8    0.00     136    999.0   25.8
 355   14:00   40.9    92    4.0   241     12.5   792.8    0.00     111    999.0   26.1
 355   14:10   40.8    93    3.7   235     15.3   792.7    0.00     118    999.0   25.8
 355   14:20   40.9    93    3.4   239     12.1   792.7    0.00     120    999.0   25.7
 355   14:30   40.9    92    3.5   238     14.5   792.6    0.00     109    999.0   23.5
 355   14:40   40.9    92    3.1   241      9.7   792.5    0.00      71    999.0   23.6
 355   14:50   40.7    92    3.9   242     20.9   792.6    0.00      83    999.0   24.4
 355   15:00   40.9    92    3.1   238     12.2   792.8    0.00      84    999.0   24.5
 355   15:10   40.9    92    3.7   234     10.2   793.0    0.00      52    999.0   24.3
 355   15:20   40.6    93    3.1   241     10.7   792.9    0.00      39    999.0   23.9
 355   15:30   40.6    92    3.2   235      9.7   793.0    0.00      54    999.0   24.1
 355   15:40   40.6    93    3.1   241     11.5   793.1    0.00      49    999.0   24.4
 355   15:50   40.4    93    2.9   234     10.0   793.1    0.00      43    999.0   24.7
 355   16:00   40.3    93    3.5   231     13.9   793.0    0.00      37    999.0   24.9
 355   16:10   40.4    92    3.4   235     11.7   793.1    0.00      26    999.0   25.3
 355   16:20   40.3    92    3.0   245     11.3   793.2    0.00      14    999.0   25.6
 355   16:30   40.0    93    2.8   240      8.8   793.2    0.00       8    999.0   25.8
 355   16:40   39.8    92    2.4   229      6.5   793.2    0.00       5    999.0   25.7
 355   16:50   39.6    92    2.6   227     10.3   793.2    0.00       3    999.0   25.3
 355   17:00   39.6    92    2.7   224     10.4   793.4    0.00       2    999.0   24.8
 355   17:10   39.6    92    2.9   233      8.3   793.4    0.00       0    999.0   24.1
 355   17:20   39.5    92    2.5   230      6.4   793.4    0.00       0    999.0   21.4
 355   17:30   39.3    94    2.6   226      6.8   793.5    0.00       0    999.0   22.0
 355   17:40   39.3    94    2.5   217      9.5   793.5    0.00       0    999.0   24.4
 355   17:50   39.0    94    2.5   223      6.9   793.4    0.00       0    999.0   24.2
 355   18:00   39.0    94    1.8   217      8.6   793.6    0.00       0    999.0   24.9
 355   18:10   39.2    94    2.3   208     10.5   793.8    0.00       0    999.0   25.0
 355   18:20   39.1    93    2.3   199      9.2   793.8    0.00       0    999.0   25.1
 355   18:30   39.1    92    3.1   205     11.6   793.8    0.00       0    999.0   25.1
 355   18:40   39.1    92    1.5   227      7.5   793.8    0.00       0    999.0   24.9
 355   18:50   39.0    93    1.6   219      7.7   793.8    0.00       0    999.0   24.5
 355   19:00   39.3    91    2.7   230      8.3   793.8    0.00       0    999.0   22.8
 355   19:10   39.1    91    2.0   211     12.2   793.9    0.00       0    999.0   22.4
 355   19:20   38.7    91    3.0   197     12.3   793.9    0.00       0    999.0   22.4
 355   19:30   38.6    91    1.2   215      6.3   794.0    0.00       0    999.0   22.4
 355   19:40   38.1    91    0.9   196      3.6   794.0    0.00       0    999.0   22.8
 355   19:50   38.0    92    1.6   217      6.8   793.8    0.00       0    999.0   22.8
 355   20:00   37.6    91    0.6    66      2.6   793.8    0.00       0    999.0   21.5
 355   20:10   36.1    93    0.2   284      2.8   793.9    0.00       0    999.0   21.3
 355   20:20   35.6    94    0.3   301      2.0   794.0    0.00       0    999.0   21.7
 355   20:30   35.4    95    0.2   147      1.7   794.0    0.00       0    999.0   21.5
 355   20:40   35.2    95    0.4   304      2.8   793.9    0.00       0    999.0   21.3
 355   20:50   34.9    95    0.4    31      2.0   794.1    0.00       0    999.0   21.9
 355   21:00   34.6    95    0.4   162      3.4   794.2    0.00       0    999.0   21.9
 355   21:10   34.7    96    0.5   298      2.6   794.1    0.00       0    999.0   21.8
 355   21:20   34.5    95    0.4    45      2.0   794.1    0.00       0    999.0   22.3
 355   21:30   33.8    95    0.9    28      3.3   794.2    0.00       0    999.0   21.7
 355   21:40   33.1    95    1.5   119      5.6   794.3    0.00       0    999.0   22.2
 355   21:50   32.9    96    0.7   208      3.0   794.1    0.00       0    999.0   22.0
 355   22:00   33.1    96    1.1    41      4.1   794.1    0.00       0    999.0   22.4
 355   22:10   32.7    96    1.4   104      4.5   794.1    0.00       0    999.0   22.2
 355   22:20   33.0    96    2.9   199     13.3   794.2    0.00       0    999.0   22.3
 355   22:30   33.5    94    1.0   315      3.5   794.1    0.00       0    999.0   22.0
 355   22:40   34.0    95    2.1   207     11.5   794.1    0.00       0    999.0   22.4
 355   22:50   34.1    93    1.1   174      7.8   794.1    0.00       0    999.0   22.3
 355   23:00   33.2    93    1.1   222      4.3   794.1    0.00       0    999.0   21.7
 355   23:10   33.3    95    1.3   210      4.3   794.0    0.00       0    999.0   22.0
 355   23:20   34.5    94    1.8   201      6.7   793.9    0.00       0    999.0   21.8
 355   23:30   34.6    91    0.8   212      4.3   793.9    0.00       0    999.0   20.8
 355   23:40   35.0    92    1.6   148      4.0   793.8    0.00       0    999.0   22.0
 355   23:50   35.3    92    1.3   172      6.1   793.8    0.00       0    999.0   21.9
 356    0:00   34.9    90    1.6   181     10.5   793.9    0.00       0    999.0   21.8
 356    0:10   33.4    92    1.1    81      5.3   793.9    0.00       0    999.0   21.1
 356    0:20   32.8    94    0.5   143      3.3   793.8    0.00       0    999.0   21.4
 356    0:30   33.5    94    1.4   133      4.7   793.7    0.00       0    999.0   22.6
 356    0:40   34.1    93    1.4   170      5.4   793.6    0.00       0    999.0   22.6
 356    0:50   34.9    90    1.6   216      9.9   793.7    0.00       0    999.0   22.1
 356    1:00   33.6    90    0.5    49      3.9   793.7    0.00       0    999.0   22.0
 356    1:10   32.7    92    1.5   141      6.8   793.8    0.00       0    999.0   22.0
 356    1:20   32.5    93    0.9   206      4.7   793.8    0.00       0    999.0   22.9
 356    1:30   31.5    93    1.4   121      5.0   793.8    0.00       0    999.0   23.5
 356    1:40   30.9    95    0.9   125      4.6   793.6    0.00       0    999.0   23.2
 356    1:50   30.5    95    0.6    86      3.5   793.6    0.00       0    999.0   22.6
 356    2:00   30.8    96    0.8   157      4.4   793.6    0.00       0    999.0   23.4
 356    2:10   31.4    95    1.3   125      6.4   793.5    0.00       0    999.0   23.3
 356    2:20   30.8    94    0.9   239      3.8   793.6    0.00       0    999.0   23.8
 356    2:30   30.8    94    0.3   311      3.0   793.5    0.00       0    999.0   23.4
 356    2:40   30.8    94    0.5    67      3.9   793.5    0.00       0    999.0   23.1
 356    2:50   30.3    94    0.5   133      2.6   793.5    0.00       0    999.0   24.6
 356    3:00   30.5    94    1.0   252      6.3   793.5    0.00       0    999.0   23.8
 356    3:10   30.6    94    1.4   102      6.4   793.4    0.00       0    999.0   24.2
 356    3:20   30.5    93    0.2   333      3.7   793.4    0.00       0    999.0   24.0
 356    3:30   30.1    94    0.2     7      1.9   793.5    0.00       0    999.0   23.9
 356    3:40   30.1    95    0.6   183      4.8   793.6    0.00       0    999.0   22.8
 356    3:50   29.7    95    1.2   115      4.6   793.5    0.00       0    999.0   23.7
 356    4:00   29.6    95    0.8   350      3.1   793.4    0.00       0    999.0   23.3
 356    4:10   29.7    95    0.5   201      3.3   793.3    0.00       0    999.0   24.3
 356    4:20   29.8    95    0.5    92      3.1   793.2    0.00       0    999.0   24.6
 356    4:30   29.3    95    0.4   313      3.1   793.2    0.00       0    999.0   24.6
 356    4:40   29.4    95    0.3   203      2.6   793.2    0.00       0    999.0   23.9
 356    4:50   29.5    95    0.2   310      2.1   793.4    0.00       0    999.0   23.5
 356    5:00   29.4    94    0.2   100      2.3   793.4    0.00       0    999.0   24.7
 356    5:10   29.4    94    1.3   101      4.5   793.4    0.00       0    999.0   24.6
 356    5:20   29.0    94    0.3   285      2.6   793.2    0.00       0    999.0   24.3
 356    5:30   29.2    94    0.5    92      2.5   793.1    0.00       0    999.0   24.8
 356    5:40   29.4    94    0.9   216      4.0   793.0    0.00       0    999.0   24.6
 356    5:50   29.4    93    0.7    69      3.8   792.9    0.00       0    999.0   24.6
 356    6:00   29.1    94    0.6   116      3.0   792.9    0.00       0    999.0   24.7
 356    6:10   29.2    95    0.6    98      4.2   793.0    0.00       0    999.0   24.1
 356    6:20   29.4    95    0.9   285      4.5   793.2    0.00       0    999.0   24.7
 356    6:30   29.3    94    1.0    85      5.0   793.3    0.00       0    999.0   24.7
 356    6:40   29.4    94    1.1   189      5.9   793.3    0.00       0    999.0   24.6
 356    6:50   29.6    94    0.6   235      3.1   793.3    0.00       0    999.0   24.7
 356    7:00   29.5    93    0.8    91      4.9   793.2    0.00       0    999.0   24.6
 356    7:10   29.7    94    0.7   227      4.1   793.3    0.00       1    999.0   24.6
 356    7:20   29.9    94    0.5   269      2.6   793.3    0.00       2    999.0   24.6
 356    7:30   29.8    94    0.2   200      3.1   793.4    0.00       4    999.0   24.6
 356    7:40   29.4    94    0.8    80      3.5   793.5    0.00       5    999.0   24.7
 356    7:50   29.5    95    0.8   125      6.3   793.6    0.00       6    999.0   24.3
 356    8:00   29.9    95    0.5   101      3.4   793.6    0.00       7    999.0   24.7
 356    8:10   31.1    93    0.8    74      4.0   793.6    0.00       8    999.0   24.8
 356    8:20   31.8    89    0.8    76      4.5   793.8    0.00      19    999.0   24.6
 356    8:30   32.6    87    0.8   174      6.4   793.8    0.00      25    999.0   24.5
 356    8:40   33.4    85    0.9    20      4.3   793.9    0.00      31    999.0   24.4
 356    8:50   33.3    84    1.8   165      5.5   793.9    0.00      42    999.0   24.1
 356    9:00   36.0    75    2.0   201      8.7   794.0    0.00     121    999.0   24.2
 356    9:10   38.1    67    0.9   190      4.2   794.1    0.00      96    999.0   24.0
 356    9:20   38.0    68    0.1   280      1.0   794.2    0.00     220    999.0   23.8
 356    9:30   39.0    67    1.5   231      9.5   794.6    0.00     356    999.0   23.8
 356    9:40   40.4    68    1.1   223      3.8   794.7    0.00     371    999.0   23.9
 356    9:50   42.0    66    1.5   167      5.8   794.8    0.00     396    999.0   23.9
 356   10:00   42.9    65    1.6    65      9.9   794.8    0.00     429    999.0   23.7
 356   10:10   44.3    60    2.3    95     12.4   794.7    0.00     436    999.0   23.7
 356   10:20   45.1    58    2.1   146      5.8   794.7    0.00     452    999.0   23.9
 356   10:30   44.8    59    3.1   119      9.3   794.6    0.00     470    999.0   23.9
 356   10:40   45.1    60    2.5    58      7.4   794.5    0.00     485    999.0   23.5
 356   10:50   45.4    60    3.4    69     12.0   794.5    0.00     498    999.0   23.3
 356   11:00   45.4    60    3.8    86     14.6   794.4    0.00     510    999.0   23.9
 356   11:10   45.8    58    4.0    88     12.6   794.2    0.00     220    999.0   24.1
 356   11:20   46.5    56    4.6    81     13.8   794.2    0.00     397    999.0   23.5
 356   11:30   47.8    53    5.1    91     22.2   794.0    0.00     590    999.0   23.6
 356   11:40   48.5    53    3.5    82     15.1   793.8    0.00     554    999.0   23.3
 356   11:50   49.0    52    1.8    46     10.6   793.7    0.00     548    999.0   23.1
 356   12:00   49.5    52    2.2    58     10.3   793.6    0.00     544    999.0   23.4

Return to Sugar Bowl graphs page.


Western Regional Climate Center,wrcc@dri.edu